Time;durP1;ratioP1;P1;durP2;ratioP2;P2;SDS_P1;SDS_P2;PMS_P1;PMS_P2;Temp;Humidity;BMP_temperature;BMP_pressure;BME280_temperature;BME280_humidity;BME280_pressure;Samples;Min_cycle;Max_cycle;Signal;HPM_P1;HPM_P2
2024/02/23 00:00:12;;;;;;;65.28;20.15;;;;;;;;;;5025848;28;20045;-47
2024/02/23 00:02:38;;;;;;;67.40;21.08;;;;;;;;;;5027297;28;20022;-52
2024/02/23 00:05:06;;;;;;;79.40;21.38;;;;;;;;;;5026805;28;20046;-47
2024/02/23 00:07:32;;;;;;;81.03;22.00;;;;;;;;;;5026804;28;20306;-51
2024/02/23 00:09:59;;;;;;;58.85;19.95;;;;;;;;;;5026958;28;20344;-46
2024/02/23 00:12:25;;;;;;;56.58;18.98;;;;;;;;;;5026785;28;20357;-49
2024/02/23 00:14:52;;;;;;;60.65;19.05;;;;;;;;;;5026753;28;20099;-45
2024/02/23 00:17:18;;;;;;;52.85;18.50;;;;;;;;;;5026722;28;20030;-46
2024/02/23 00:19:47;;;;;;;55.88;17.70;;;;;;;;;;5026579;28;20052;-50
2024/02/23 00:22:13;;;;;;;35.55;17.05;;;;;;;;;;5026446;28;20017;-51
2024/02/23 00:24:40;;;;;;;47.10;17.17;;;;;;;;;;5026549;28;20037;-54
2024/02/23 00:27:07;;;;;;;39.70;15.48;;;;;;;;;;5008865;28;20269;-48
2024/02/23 00:29:34;;;;;;;40.33;15.63;;;;;;;;;;5026727;28;20030;-54
2024/02/23 00:32:01;;;;;;;36.38;16.10;;;;;;;;;;5026459;28;20030;-48
2024/02/23 00:34:27;;;;;;;48.42;15.77;;;;;;;;;;5026877;28;20341;-52
2024/02/23 00:36:54;;;;;;;39.03;16.92;;;;;;;;;;5026309;28;20037;-49
2024/02/23 00:39:20;;;;;;;37.75;16.13;;;;;;;;;;5026686;28;20029;-49
2024/02/23 00:41:47;;;;;;;36.40;16.65;;;;;;;;;;5026479;28;20022;-52
2024/02/23 00:44:14;;;;;;;37.90;15.77;;;;;;;;;;5008332;28;20238;-46
2024/02/23 00:46:40;;;;;;;35.47;16.40;;;;;;;;;;5026152;28;20077;-47
2024/02/23 00:49:07;;;;;;;31.52;16.35;;;;;;;;;;5026586;28;20022;-53
2024/02/23 00:51:33;;;;;;;51.20;18.70;;;;;;;;;;5024780;28;20026;-57
2024/02/23 00:54:00;;;;;;;46.85;18.63;;;;;;;;;;5026392;28;20088;-58
2024/02/23 00:56:27;;;;;;;34.13;16.95;;;;;;;;;;5026007;28;20033;-57
2024/02/23 00:58:54;;;;;;;44.17;18.75;;;;;;;;;;5026087;28;20026;-54
2024/02/23 01:01:20;;;;;;;37.88;20.45;;;;;;;;;;5025964;28;20249;-53
2024/02/23 01:03:47;;;;;;;49.13;21.90;;;;;;;;;;5024608;28;20017;-58
2024/02/23 01:06:13;;;;;;;42.75;23.98;;;;;;;;;;5025551;28;20073;-58
2024/02/23 01:08:41;;;;;;;67.30;24.67;;;;;;;;;;5025575;28;20022;-53
2024/02/23 01:11:08;;;;;;;66.95;22.38;;;;;;;;;;5007166;28;20032;-49
2024/02/23 01:13:34;;;;;;;41.53;20.02;;;;;;;;;;5025802;28;20358;-46
2024/02/23 01:16:01;;;;;;;39.42;19.23;;;;;;;;;;5025571;28;20112;-46
2024/02/23 01:18:27;;;;;;;37.08;19.52;;;;;;;;;;5005474;28;20024;-45
2024/02/23 01:20:54;;;;;;;44.58;19.00;;;;;;;;;;5021213;28;20222;-47
2024/02/23 01:23:20;;;;;;;46.75;18.52;;;;;;;;;;5016332;28;20018;-47
2024/02/23 01:25:47;;;;;;;47.05;17.65;;;;;;;;;;5014747;28;20032;-43
2024/02/23 01:28:14;;;;;;;53.63;17.55;;;;;;;;;;5014732;28;20202;-44
2024/02/23 01:30:40;;;;;;;38.70;17.23;;;;;;;;;;5015968;28;20021;-52
2024/02/23 01:33:07;;;;;;;53.47;18.35;;;;;;;;;;5020488;28;20022;-46
2024/02/23 01:35:33;;;;;;;46.83;18.10;;;;;;;;;;5024634;28;20319;-45
2024/02/23 01:38:00;;;;;;;100.75;22.05;;;;;;;;;;5007485;28;20026;-45
2024/02/23 01:40:27;;;;;;;60.78;19.23;;;;;;;;;;5022966;28;20025;-44
2024/02/23 01:43:03;;;;;;;46.45;18.58;;;;;;;;;;5022744;28;20048;-45
2024/02/23 01:45:30;;;;;;;38.97;17.25;;;;;;;;;;5025108;28;20030;-50
2024/02/23 01:47:57;;;;;;;45.53;17.95;;;;;;;;;;5025107;28;20017;-44
2024/02/23 01:50:24;;;;;;;42.35;17.08;;;;;;;;;;5024910;28;20030;-44
2024/02/23 01:52:52;;;;;;;37.50;16.98;;;;;;;;;;5025150;28;20080;-44
2024/02/23 01:55:21;;;;;;;32.58;16.23;;;;;;;;;;5023194;28;20257;-43
2024/02/23 01:57:48;;;;;;;22.05;14.82;;;;;;;;;;5024734;28;20021;-44
2024/02/23 02:00:17;;;;;;;27.98;15.25;;;;;;;;;;5024754;28;20041;-46
2024/02/23 02:02:44;;;;;;;25.52;14.77;;;;;;;;;;5024656;28;20022;-43
2024/02/23 02:05:11;;;;;;;26.80;16.33;;;;;;;;;;5024459;28;20050;-45
2024/02/23 02:07:38;;;;;;;29.08;14.77;;;;;;;;;;5024754;28;20032;-43
2024/02/23 02:10:07;;;;;;;24.55;15.57;;;;;;;;;;5024262;28;20089;-46
2024/02/23 02:12:34;;;;;;;23.30;14.45;;;;;;;;;;5023720;28;20072;-44
2024/02/23 02:15:01;;;;;;;21.83;12.98;;;;;;;;;;5024619;28;20064;-43
2024/02/23 02:17:28;;;;;;;25.25;15.98;;;;;;;;;;5023151;28;20026;-45
2024/02/23 02:19:55;;;;;;;25.38;15.18;;;;;;;;;;5024265;28;20225;-48
2024/02/23 02:22:21;;;;;;;18.75;12.68;;;;;;;;;;5024529;28;20073;-45
2024/02/23 02:24:48;;;;;;;19.75;12.45;;;;;;;;;;5024155;28;20037;-44
2024/02/23 02:27:15;;;;;;;22.98;12.02;;;;;;;;;;5024278;28;20021;-51
2024/02/23 02:29:41;;;;;;;15.85;10.77;;;;;;;;;;5024471;28;20360;-44
2024/02/23 02:32:08;;;;;;;18.10;11.63;;;;;;;;;;5024404;28;20032;-44
2024/02/23 02:34:35;;;;;;;17.40;11.73;;;;;;;;;;5024807;28;20014;-44
2024/02/23 02:37:01;;;;;;;18.88;11.60;;;;;;;;;;5024248;28;20058;-47
2024/02/23 02:39:29;;;;;;;18.08;11.30;;;;;;;;;;5024368;28;20072;-47
2024/02/23 02:41:55;;;;;;;14.75;11.80;;;;;;;;;;5024192;28;20217;-45
2024/02/23 02:44:22;;;;;;;18.90;12.63;;;;;;;;;;5023773;28;20022;-49
2024/02/23 02:46:49;;;;;;;16.25;12.05;;;;;;;;;;5024148;28;20022;-48
2024/02/23 02:49:15;;;;;;;18.40;12.52;;;;;;;;;;5024010;28;20085;-48
2024/02/23 02:51:42;;;;;;;18.23;11.82;;;;;;;;;;5023764;28;20030;-49
2024/02/23 02:54:08;;;;;;;16.80;11.73;;;;;;;;;;5022633;28;20021;-46
2024/02/23 02:56:35;;;;;;;15.05;11.88;;;;;;;;;;5023911;28;20037;-44
2024/02/23 02:59:01;;;;;;;31.77;23.10;;;;;;;;;;5024171;28;20026;-44
2024/02/23 03:01:28;;;;;;;32.08;20.77;;;;;;;;;;5024291;28;20061;-47
2024/02/23 03:03:55;;;;;;;29.15;18.10;;;;;;;;;;5024298;28;20025;-46
2024/02/23 03:06:21;;;;;;;23.60;16.33;;;;;;;;;;5025567;28;20054;-51
2024/02/23 03:08:48;;;;;;;22.60;14.95;;;;;;;;;;5027852;28;20022;-48
2024/02/23 03:11:14;;;;;;;19.77;12.57;;;;;;;;;;5027945;28;20030;-43
2024/02/23 03:13:41;;;;;;;17.80;12.68;;;;;;;;;;5027986;28;20033;-46
2024/02/23 03:16:15;;;;;;;14.93;12.13;;;;;;;;;;5027944;28;20022;-46
2024/02/23 03:18:42;;;;;;;17.25;11.32;;;;;;;;;;5027929;28;20021;-51
2024/02/23 03:21:09;;;;;;;14.63;11.43;;;;;;;;;;5027727;28;20028;-54
2024/02/23 03:23:36;;;;;;;21.20;10.93;;;;;;;;;;5027664;28;20029;-50
2024/02/23 03:26:03;;;;;;;15.18;11.50;;;;;;;;;;5027626;28;20061;-45
2024/02/23 03:28:29;;;;;;;15.57;11.13;;;;;;;;;;5026725;28;20018;-50
2024/02/23 03:30:56;;;;;;;18.52;10.90;;;;;;;;;;5026947;28;20040;-59
2024/02/23 03:33:23;;;;;;;19.05;11.23;;;;;;;;;;5027056;28;20037;-57
2024/02/23 03:35:49;;;;;;;14.75;10.80;;;;;;;;;;5027225;28;20034;-47
2024/02/23 03:38:16;;;;;;;14.73;10.63;;;;;;;;;;5027232;28;20022;-50
2024/02/23 03:40:42;;;;;;;16.15;10.77;;;;;;;;;;5027312;28;20057;-49
2024/02/23 03:43:09;;;;;;;16.45;11.38;;;;;;;;;;5009248;28;20180;-50
2024/02/23 03:45:35;;;;;;;14.60;10.98;;;;;;;;;;5027249;28;20183;-53
2024/02/23 03:48:04;;;;;;;14.55;10.98;;;;;;;;;;5027004;28;20310;-56
2024/02/23 03:50:31;;;;;;;15.32;11.05;;;;;;;;;;5026954;28;20033;-53
2024/02/23 03:52:57;;;;;;;17.23;11.60;;;;;;;;;;5026957;28;20022;-48
2024/02/23 03:55:24;;;;;;;13.15;10.38;;;;;;;;;;5027015;28;20034;-52
2024/02/23 03:57:51;;;;;;;13.48;10.15;;;;;;;;;;5026971;28;20227;-55
2024/02/23 04:00:20;;;;;;;13.55;10.50;;;;;;;;;;5026921;28;20218;-53
2024/02/23 04:02:46;;;;;;;14.00;10.82;;;;;;;;;;5026972;28;20041;-52
2024/02/23 04:05:13;;;;;;;14.32;10.70;;;;;;;;;;5026610;28;20088;-51
2024/02/23 04:07:40;;;;;;;15.75;10.60;;;;;;;;;;5026813;28;20018;-53
2024/02/23 04:10:06;;;;;;;14.60;10.38;;;;;;;;;;5026891;28;20085;-55
2024/02/23 04:12:33;;;;;;;15.57;10.45;;;;;;;;;;5009139;28;20309;-51
2024/02/23 04:15:00;;;;;;;20.33;11.02;;;;;;;;;;5009250;28;20029;-52
2024/02/23 04:17:26;;;;;;;15.27;10.15;;;;;;;;;;5025086;28;20077;-50
2024/02/23 04:19:53;;;;;;;16.42;10.93;;;;;;;;;;5026369;28;20041;-57
2024/02/23 04:22:19;;;;;;;15.30;10.18;;;;;;;;;;5026596;28;20025;-52
2024/02/23 04:24:46;;;;;;;13.93;9.90;;;;;;;;;;5026480;28;20030;-48
2024/02/23 04:27:13;;;;;;;15.82;10.60;;;;;;;;;;5026502;28;20017;-53
2024/02/23 04:29:39;;;;;;;12.15;10.23;;;;;;;;;;5026627;28;20093;-55
2024/02/23 04:32:06;;;;;;;14.70;9.45;;;;;;;;;;5025773;28;20191;-52
2024/02/23 04:34:32;;;;;;;15.32;10.57;;;;;;;;;;5024821;28;20026;-52
2024/02/23 04:36:59;;;;;;;13.27;9.95;;;;;;;;;;5026238;28;20026;-48
2024/02/23 04:39:26;;;;;;;14.98;9.65;;;;;;;;;;5026672;28;20040;-55
2024/02/23 04:41:53;;;;;;;13.40;9.98;;;;;;;;;;5026204;28;20358;-52
2024/02/23 04:44:20;;;;;;;11.30;9.57;;;;;;;;;;5026494;28;20022;-47
2024/02/23 04:46:46;;;;;;;18.92;10.10;;;;;;;;;;5026145;28;20026;-51
2024/02/23 04:49:13;;;;;;;21.25;9.65;;;;;;;;;;5025990;28;20030;-51
2024/02/23 04:51:40;;;;;;;13.65;9.63;;;;;;;;;;5025231;28;20045;-55
2024/02/23 04:54:06;;;;;;;13.68;10.02;;;;;;;;;;5026191;28;20026;-48
2024/02/23 04:56:33;;;;;;;13.30;9.77;;;;;;;;;;5025938;28;20030;-49
2024/02/23 04:59:00;;;;;;;14.90;9.88;;;;;;;;;;5026046;28;20393;-53
2024/02/23 05:01:26;;;;;;;12.75;9.15;;;;;;;;;;5025884;28;20077;-48
2024/02/23 05:03:53;;;;;;;12.10;9.38;;;;;;;;;;5026031;28;20041;-48
2024/02/23 05:06:19;;;;;;;12.57;10.15;;;;;;;;;;5024894;28;20057;-54
2024/02/23 05:08:46;;;;;;;13.85;9.18;;;;;;;;;;5025906;28;20018;-51
2024/02/23 05:11:16;;;;;;;12.18;9.10;;;;;;;;;;5025706;28;20026;-56
2024/02/23 05:13:42;;;;;;;10.43;9.35;;;;;;;;;;5025673;28;20240;-47
2024/02/23 05:16:09;;;;;;;12.40;9.48;;;;;;;;;;5025630;28;20068;-52
2024/02/23 05:18:36;;;;;;;10.65;9.25;;;;;;;;;;5025740;28;20253;-49
2024/02/23 05:21:02;;;;;;;12.07;9.23;;;;;;;;;;5025211;28;20222;-51
2024/02/23 05:23:29;;;;;;;10.35;9.23;;;;;;;;;;5025360;28;20041;-53
2024/02/23 05:25:55;;;;;;;12.52;8.98;;;;;;;;;;5025606;28;20100;-47
2024/02/23 05:28:22;;;;;;;12.73;9.35;;;;;;;;;;5025392;28;20033;-52
2024/02/23 05:30:48;;;;;;;12.73;8.98;;;;;;;;;;5025372;28;20021;-55
2024/02/23 05:33:15;;;;;;;12.23;9.68;;;;;;;;;;5025478;28;20030;-55
2024/02/23 05:35:42;;;;;;;13.60;9.20;;;;;;;;;;5025146;28;20022;-53
2024/02/23 05:38:08;;;;;;;11.15;8.68;;;;;;;;;;5025371;28;20092;-46
2024/02/23 05:40:35;;;;;;;11.50;8.68;;;;;;;;;;5025032;28;20089;-46
2024/02/23 05:43:02;;;;;;;14.13;9.02;;;;;;;;;;5024977;28;20294;-48
2024/02/23 05:45:29;;;;;;;12.90;9.43;;;;;;;;;;5025177;28;20276;-47
2024/02/23 05:47:56;;;;;;;10.38;8.32;;;;;;;;;;5024831;28;20191;-47
2024/02/23 05:50:22;;;;;;;11.68;9.20;;;;;;;;;;5024772;28;20064;-47
2024/02/23 05:52:49;;;;;;;10.30;8.70;;;;;;;;;;5025411;28;20029;-51
2024/02/23 05:55:15;;;;;;;14.50;9.13;;;;;;;;;;5023676;28;20037;-47
2024/02/23 05:57:42;;;;;;;10.43;8.68;;;;;;;;;;5024839;28;20037;-47
2024/02/23 06:00:09;;;;;;;10.77;8.45;;;;;;;;;;5024536;28;20030;-47
2024/02/23 06:02:35;;;;;;;10.50;8.50;;;;;;;;;;5024794;28;20294;-47
2024/02/23 06:05:02;;;;;;;12.45;8.68;;;;;;;;;;5024601;28;20334;-45
2024/02/23 06:07:28;;;;;;;10.05;8.32;;;;;;;;;;5024414;28;20021;-47
2024/02/23 06:09:56;;;;;;;15.35;8.43;;;;;;;;;;5024700;28;20191;-46
2024/02/23 06:12:23;;;;;;;10.48;8.07;;;;;;;;;;5024588;28;20217;-49
2024/02/23 06:14:49;;;;;;;11.30;8.65;;;;;;;;;;5024416;28;20029;-51
2024/02/23 06:17:16;;;;;;;12.35;8.40;;;;;;;;;;5024478;28;20026;-48
2024/02/23 06:19:42;;;;;;;14.25;8.35;;;;;;;;;;5024298;28;20218;-45
2024/02/23 06:22:10;;;;;;;11.07;8.48;;;;;;;;;;5024260;28;20310;-49
2024/02/23 06:24:37;;;;;;;14.15;8.18;;;;;;;;;;5024820;28;20294;-50
2024/02/23 06:27:03;;;;;;;9.18;8.13;;;;;;;;;;5024306;28;20306;-49
2024/02/23 06:29:30;;;;;;;10.02;7.50;;;;;;;;;;5024660;28;20183;-52
2024/02/23 06:31:57;;;;;;;12.75;7.93;;;;;;;;;;5024685;28;20083;-51
2024/02/23 06:34:24;;;;;;;12.02;8.63;;;;;;;;;;5024621;28;20029;-47
2024/02/23 06:36:51;;;;;;;10.63;8.27;;;;;;;;;;5023980;28;20033;-52
2024/02/23 06:39:18;;;;;;;13.40;8.32;;;;;;;;;;5024456;28;20032;-47
2024/02/23 06:41:44;;;;;;;10.40;7.72;;;;;;;;;;5023733;28;20318;-51
2024/02/23 06:44:11;;;;;;;14.30;8.13;;;;;;;;;;5024313;28;20050;-50
2024/02/23 06:46:38;;;;;;;11.20;7.88;;;;;;;;;;5024164;28;20203;-58
2024/02/23 06:49:07;;;;;;;9.40;7.80;;;;;;;;;;5024469;28;20029;-50
2024/02/23 06:51:33;;;;;;;9.63;7.22;;;;;;;;;;5023883;28;20108;-50
2024/02/23 06:54:00;;;;;;;9.77;7.50;;;;;;;;;;5024008;28;20026;-48
2024/02/23 06:56:26;;;;;;;9.40;7.00;;;;;;;;;;5023976;28;20029;-48
2024/02/23 06:58:53;;;;;;;10.05;7.22;;;;;;;;;;5024084;28;20033;-48
2024/02/23 07:01:21;;;;;;;9.27;7.57;;;;;;;;;;5023871;28;20081;-47
2024/02/23 07:03:50;;;;;;;8.73;7.65;;;;;;;;;;5024080;28;20033;-47
2024/02/23 07:06:18;;;;;;;10.90;7.53;;;;;;;;;;5023648;28;20070;-47
2024/02/23 07:08:46;;;;;;;8.63;7.72;;;;;;;;;;5024092;28;20072;-52
2024/02/23 07:11:13;;;;;;;9.30;7.10;;;;;;;;;;5023901;28;20102;-49
2024/02/23 07:13:40;;;;;;;11.02;7.45;;;;;;;;;;5023917;28;20014;-49
2024/02/23 07:16:07;;;;;;;11.50;7.88;;;;;;;;;;5023699;28;20053;-49
2024/02/23 07:18:33;;;;;;;10.32;7.28;;;;;;;;;;5024045;28;20326;-48
2024/02/23 07:21:01;;;;;;;10.60;7.30;;;;;;;;;;5023652;28;20271;-49
2024/02/23 07:23:28;;;;;;;10.77;7.32;;;;;;;;;;5023903;28;20058;-46
2024/02/23 07:25:55;;;;;;;9.77;7.30;;;;;;;;;;5023992;28;20218;-44
2024/02/23 07:28:22;;;;;;;9.98;7.07;;;;;;;;;;5023403;28;20238;-50
2024/02/23 07:30:49;;;;;;;9.65;7.40;;;;;;;;;;5023611;28;20049;-43
2024/02/23 07:33:16;;;;;;;9.20;7.07;;;;;;;;;;5023858;28;20028;-47
2024/02/23 07:35:42;;;;;;;10.43;7.00;;;;;;;;;;5023533;28;20030;-45
2024/02/23 07:38:09;;;;;;;9.48;7.35;;;;;;;;;;5023640;28;20022;-49
2024/02/23 07:40:35;;;;;;;9.73;7.05;;;;;;;;;;5023533;28;20029;-45
2024/02/23 07:43:02;;;;;;;8.60;6.50;;;;;;;;;;5023625;28;20081;-45
2024/02/23 07:45:29;;;;;;;9.18;7.13;;;;;;;;;;5023916;28;20281;-45
2024/02/23 07:47:55;;;;;;;7.57;6.75;;;;;;;;;;5023690;28;20037;-46
2024/02/23 07:50:22;;;;;;;7.88;6.75;;;;;;;;;;5023363;28;20330;-47
2024/02/23 07:52:48;;;;;;;9.93;7.00;;;;;;;;;;5024371;28;20034;-50
2024/02/23 07:55:15;;;;;;;8.80;7.07;;;;;;;;;;5027037;28;20064;-45
2024/02/23 07:57:41;;;;;;;9.63;6.85;;;;;;;;;;5027133;28;20206;-44
2024/02/23 08:00:09;;;;;;;8.35;6.65;;;;;;;;;;5026804;28;20049;-46
2024/02/23 08:02:36;;;;;;;9.57;6.97;;;;;;;;;;5026901;28;20302;-45
2024/02/23 08:05:03;;;;;;;10.50;7.25;;;;;;;;;;5026851;28;20357;-45
2024/02/23 08:07:30;;;;;;;8.02;6.25;;;;;;;;;;5026669;28;20041;-47
2024/02/23 08:09:57;;;;;;;10.45;7.15;;;;;;;;;;5025643;28;20251;-50
2024/02/23 08:12:24;;;;;;;8.25;6.55;;;;;;;;;;5026807;28;20021;-49
2024/02/23 08:14:53;;;;;;;7.47;6.47;;;;;;;;;;5026588;28;20041;-50
2024/02/23 08:17:20;;;;;;;8.85;6.70;;;;;;;;;;5026809;28;20077;-52
2024/02/23 08:19:47;;;;;;;8.70;6.68;;;;;;;;;;5026425;28;20030;-51
2024/02/23 08:22:14;;;;;;;8.73;6.47;;;;;;;;;;5026437;28;20358;-54
2024/02/23 08:24:40;;;;;;;8.75;7.03;;;;;;;;;;5026518;28;20029;-51
2024/02/23 08:27:07;;;;;;;7.20;6.18;;;;;;;;;;5026552;28;20018;-52
2024/02/23 08:29:33;;;;;;;7.10;6.40;;;;;;;;;;5026007;28;20229;-52
2024/02/23 08:32:00;;;;;;;7.50;6.13;;;;;;;;;;5026559;28;20183;-47
2024/02/23 08:34:27;;;;;;;9.18;6.82;;;;;;;;;;5026761;28;20026;-51
2024/02/23 08:36:53;;;;;;;9.18;6.80;;;;;;;;;;5026142;28;20029;-50
2024/02/23 08:39:22;;;;;;;8.88;6.90;;;;;;;;;;5026166;28;20120;-48
2024/02/23 08:41:48;;;;;;;9.88;7.60;;;;;;;;;;5026161;28;20025;-50
2024/02/23 08:44:15;;;;;;;8.10;7.30;;;;;;;;;;5026546;28;20030;-51
2024/02/23 08:46:42;;;;;;;9.35;7.25;;;;;;;;;;5026049;28;20022;-53
2024/02/23 08:49:09;;;;;;;10.20;7.65;;;;;;;;;;5026698;28;20205;-50
2024/02/23 08:51:35;;;;;;;10.68;8.15;;;;;;;;;;5025876;28;20025;-52
2024/02/23 08:54:04;;;;;;;8.82;7.50;;;;;;;;;;5026424;28;20033;-51
2024/02/23 08:56:31;;;;;;;9.85;7.65;;;;;;;;;;5026189;28;20081;-50
2024/02/23 08:58:58;;;;;;;8.77;7.78;;;;;;;;;;5026200;28;20034;-47
2024/02/23 09:01:25;;;;;;;12.63;8.10;;;;;;;;;;5025950;28;20222;-52
2024/02/23 09:03:52;;;;;;;8.55;7.20;;;;;;;;;;5025822;28;20049;-49
2024/02/23 09:06:19;;;;;;;10.68;7.78;;;;;;;;;;5025553;28;20050;-51
2024/02/23 09:08:46;;;;;;;10.18;8.05;;;;;;;;;;5025966;28;20071;-50
2024/02/23 09:11:13;;;;;;;11.07;8.27;;;;;;;;;;5025774;28;20029;-52
2024/02/23 09:13:42;;;;;;;9.07;7.75;;;;;;;;;;5025738;28;20086;-49
2024/02/23 09:16:08;;;;;;;8.38;7.30;;;;;;;;;;5025843;28;20026;-45
2024/02/23 09:18:35;;;;;;;12.13;8.32;;;;;;;;;;5025833;28;20026;-50
2024/02/23 09:21:02;;;;;;;9.43;8.43;;;;;;;;;;5025261;28;20029;-51
2024/02/23 09:23:28;;;;;;;10.45;7.80;;;;;;;;;;5025438;28;20025;-49
2024/02/23 09:25:55;;;;;;;9.85;8.25;;;;;;;;;;5025522;28;20025;-52
2024/02/23 09:28:22;;;;;;;12.57;8.35;;;;;;;;;;5025467;28;20022;-52
2024/02/23 09:30:49;;;;;;;10.63;7.85;;;;;;;;;;5025263;28;20081;-51
2024/02/23 09:33:15;;;;;;;10.52;8.75;;;;;;;;;;5025433;28;20032;-50
2024/02/23 09:35:42;;;;;;;11.05;8.48;;;;;;;;;;5025096;28;20018;-55
2024/02/23 09:38:08;;;;;;;11.95;8.73;;;;;;;;;;5025446;28;20036;-49
2024/02/23 09:40:35;;;;;;;10.65;9.40;;;;;;;;;;5024982;28;20033;-48
2024/02/23 09:43:02;;;;;;;9.85;8.40;;;;;;;;;;5025111;28;20026;-49
2024/02/23 09:45:29;;;;;;;14.40;9.88;;;;;;;;;;5025198;28;20086;-49
2024/02/23 09:47:57;;;;;;;11.45;9.52;;;;;;;;;;5025206;28;20026;-47
2024/02/23 09:50:24;;;;;;;12.07;9.30;;;;;;;;;;5024752;28;20034;-50
2024/02/23 09:52:51;;;;;;;13.50;9.85;;;;;;;;;;5024982;28;20068;-50
2024/02/23 09:55:18;;;;;;;14.77;9.70;;;;;;;;;;5024857;28;20133;-54
2024/02/23 09:57:46;;;;;;;15.82;10.10;;;;;;;;;;5024827;28;20034;-48
2024/02/23 10:00:12;;;;;;;12.57;9.82;;;;;;;;;;5024647;28;20034;-49
2024/02/23 10:02:41;;;;;;;11.20;9.75;;;;;;;;;;5024737;28;20197;-51
2024/02/23 10:05:09;;;;;;;14.48;10.05;;;;;;;;;;5024416;28;20053;-55
2024/02/23 10:07:37;;;;;;;11.93;10.00;;;;;;;;;;5024544;28;20085;-50
2024/02/23 10:10:07;;;;;;;11.25;9.68;;;;;;;;;;5024557;28;20306;-52
2024/02/23 10:12:35;;;;;;;11.70;9.35;;;;;;;;;;5024470;28;20046;-59
2024/02/23 10:15:03;;;;;;;13.27;9.90;;;;;;;;;;5023997;28;20048;-50
2024/02/23 10:17:31;;;;;;;11.43;10.05;;;;;;;;;;5024269;28;20077;-47
2024/02/23 10:19:57;;;;;;;10.60;9.57;;;;;;;;;;5024297;28;20322;-50
2024/02/23 10:22:25;;;;;;;15.32;9.88;;;;;;;;;;5024410;28;20013;-55
2024/02/23 10:24:51;;;;;;;13.70;9.27;;;;;;;;;;5024310;28;20021;-46
2024/02/23 10:27:18;;;;;;;12.27;10.07;;;;;;;;;;5024351;28;20018;-52
2024/02/23 10:29:45;;;;;;;12.10;9.20;;;;;;;;;;5024594;28;20033;-52
2024/02/23 10:32:14;;;;;;;10.80;9.50;;;;;;;;;;5024276;28;20017;-48
2024/02/23 10:34:43;;;;;;;12.27;9.15;;;;;;;;;;5024139;28;20322;-55
2024/02/23 10:37:10;;;;;;;13.20;8.75;;;;;;;;;;5024343;28;20322;-48
2024/02/23 10:39:37;;;;;;;12.23;8.43;;;;;;;;;;5024639;28;20030;-51
2024/02/23 10:42:05;;;;;;;21.63;9.13;;;;;;;;;;5023994;28;20018;-46
2024/02/23 10:44:32;;;;;;;12.27;9.02;;;;;;;;;;5024552;28;20069;-47
2024/02/23 10:46:59;;;;;;;13.38;9.70;;;;;;;;;;5024179;28;20218;-48
2024/02/23 10:49:26;;;;;;;15.18;9.82;;;;;;;;;;5024658;28;20030;-51
2024/02/23 10:51:53;;;;;;;18.17;9.30;;;;;;;;;;5023974;28;20018;-46
2024/02/23 10:54:21;;;;;;;24.98;9.88;;;;;;;;;;5024006;28;20397;-52
2024/02/23 10:56:48;;;;;;;27.63;10.32;;;;;;;;;;5023750;28;20022;-50
2024/02/23 10:59:18;;;;;;;17.33;9.63;;;;;;;;;;5024322;28;20030;-50
2024/02/23 11:01:52;;;;;;;17.90;9.65;;;;;;;;;;5023897;28;20046;-49
2024/02/23 11:04:18;;;;;;;15.25;9.40;;;;;;;;;;5024186;28;20314;-47
2024/02/23 11:07:04;;;;;;;15.00;9.25;;;;;;;;;;5023847;28;20044;-49
2024/02/23 11:09:32;;;;;;;16.75;9.77;;;;;;;;;;5023987;28;20065;-50
2024/02/23 11:11:59;;;;;;;20.38;9.85;;;;;;;;;;5023842;28;20265;-56
2024/02/23 11:14:39;;;;;;;21.20;10.55;;;;;;;;;;5024288;28;20033;-49
2024/02/23 11:17:06;;;;;;;19.30;10.25;;;;;;;;;;5023765;28;20368;-49
2024/02/23 11:19:40;;;;;;;20.90;10.25;;;;;;;;;;5024240;28;20041;-52
2024/02/23 11:22:10;;;;;;;17.25;10.18;;;;;;;;;;5023571;28;20093;-47
2024/02/23 11:24:44;;;;;;;17.40;9.65;;;;;;;;;;5024172;28;20026;-46
2024/02/23 11:27:14;;;;;;;18.73;10.25;;;;;;;;;;5025309;28;20025;-47
2024/02/23 11:29:41;;;;;;;21.95;10.30;;;;;;;;;;5027489;28;20048;-49
2024/02/23 11:32:17;;;;;;;20.58;10.25;;;;;;;;;;5027744;28;20085;-46
2024/02/23 11:34:56;;;;;;;21.98;10.10;;;;;;;;;;5027386;28;20029;-48
2024/02/23 11:37:23;;;;;;;17.45;9.63;;;;;;;;;;5027650;28;20205;-46
2024/02/23 11:39:50;;;;;;;19.92;9.85;;;;;;;;;;5027248;28;20085;-48
2024/02/23 11:42:18;;;;;;;17.55;10.10;;;;;;;;;;5027298;28;20018;-46
2024/02/23 11:44:45;;;;;;;20.15;10.27;;;;;;;;;;5027204;28;20321;-47
2024/02/23 11:47:11;;;;;;;14.70;9.40;;;;;;;;;;5027247;28;20024;-47
2024/02/23 11:49:38;;;;;;;18.45;10.27;;;;;;;;;;5027766;28;20030;-49
2024/02/23 11:52:05;;;;;;;18.00;9.68;;;;;;;;;;5027240;28;20040;-47
2024/02/23 11:54:32;;;;;;;20.58;10.82;;;;;;;;;;5027622;28;20195;-53
2024/02/23 11:57:00;;;;;;;25.38;10.32;;;;;;;;;;5027043;28;20161;-51
2024/02/23 11:59:26;;;;;;;23.73;11.05;;;;;;;;;;5027272;28;20033;-46
2024/02/23 12:01:53;;;;;;;33.88;11.82;;;;;;;;;;5027156;28;20052;-47
2024/02/23 12:04:20;;;;;;;31.50;11.48;;;;;;;;;;5027274;28;20026;-46
2024/02/23 12:06:46;;;;;;;38.30;12.43;;;;;;;;;;5026727;28;20105;-53
2024/02/23 12:09:15;;;;;;;32.50;11.05;;;;;;;;;;5027311;28;20093;-46
2024/02/23 12:11:42;;;;;;;27.20;11.38;;;;;;;;;;5026602;28;20434;-47
2024/02/23 12:14:08;;;;;;;19.80;9.98;;;;;;;;;;5027121;28;20045;-46
2024/02/23 12:16:38;;;;;;;17.08;9.20;;;;;;;;;;5026761;28;20025;-46
2024/02/23 12:19:05;;;;;;;13.52;9.30;;;;;;;;;;5026950;28;20040;-45
2024/02/23 12:21:37;;;;;;;12.00;10.10;;;;;;;;;;5026563;28;20085;-43
2024/02/23 12:24:03;;;;;;;;;;;;;;;;;;5026379;28;20024;-46
2024/02/23 12:26:30;;;;;;;16.25;9.85;;;;;;;;;;5024971;28;19912;-47
2024/02/23 12:29:02;;;;;;;14.43;10.13;;;;;;;;;;5026295;28;20267;-45
2024/02/23 12:31:29;;;;;;;14.80;10.15;;;;;;;;;;5025218;28;20077;-44
2024/02/23 12:33:57;;;;;;;10.73;9.45;;;;;;;;;;5026678;28;20052;-50
2024/02/23 12:36:24;;;;;;;13.30;9.43;;;;;;;;;;5025828;28;20086;-45
2024/02/23 12:38:51;;;;;;;15.07;9.85;;;;;;;;;;5023723;28;20369;-55
2024/02/23 12:41:17;;;;;;;14.30;9.30;;;;;;;;;;5024525;28;20262;-51
2024/02/23 12:43:44;;;;;;;13.88;9.70;;;;;;;;;;5024680;28;20089;-51
2024/02/23 12:46:13;;;;;;;15.15;8.95;;;;;;;;;;5024362;28;20029;-52
2024/02/23 12:48:40;;;;;;;19.13;9.70;;;;;;;;;;5024602;28;20024;-51
2024/02/23 12:51:07;;;;;;;29.52;10.85;;;;;;;;;;5024335;28;20030;-51
2024/02/23 12:53:40;;;;;;;25.08;10.23;;;;;;;;;;5026056;28;20021;-49
2024/02/23 12:56:15;;;;;;;28.75;10.98;;;;;;;;;;5026320;28;20029;-49
2024/02/23 12:58:42;;;;;;;27.85;10.20;;;;;;;;;;5026178;28;20210;-50
2024/02/23 13:01:09;;;;;;;36.25;12.10;;;;;;;;;;5025627;28;20029;-53
2024/02/23 13:03:36;;;;;;;57.90;13.10;;;;;;;;;;5026077;28;20022;-50
2024/02/23 13:06:03;;;;;;;37.67;12.05;;;;;;;;;;5025287;28;20303;-50
2024/02/23 13:08:30;;;;;;;31.95;11.63;;;;;;;;;;5025770;28;20030;-46
2024/02/23 13:10:57;;;;;;;29.77;11.23;;;;;;;;;;5025824;28;20028;-51
2024/02/23 13:13:24;;;;;;;63.33;14.82;;;;;;;;;;5025455;28;20454;-54
2024/02/23 13:15:52;;;;;;;25.35;10.77;;;;;;;;;;5025420;28;20036;-55
2024/02/23 13:18:19;;;;;;;54.20;13.55;;;;;;;;;;5025710;28;20033;-50
2024/02/23 13:20:46;;;;;;;39.28;10.48;;;;;;;;;;5025483;28;20322;-52
2024/02/23 13:23:13;;;;;;;21.50;9.88;;;;;;;;;;5025298;28;20089;-50
2024/02/23 13:25:40;;;;;;;26.10;9.20;;;;;;;;;;5025391;28;20244;-52
2024/02/23 13:28:07;;;;;;;31.05;10.30;;;;;;;;;;5024471;28;20093;-52
2024/02/23 13:30:36;;;;;;;40.80;10.93;;;;;;;;;;5023662;28;20025;-55
2024/02/23 13:33:03;;;;;;;23.83;10.52;;;;;;;;;;5023551;28;20031;-48
2024/02/23 13:35:30;;;;;;;23.20;9.05;;;;;;;;;;5023542;28;20081;-54
2024/02/23 13:37:57;;;;;;;20.38;9.45;;;;;;;;;;5023500;28;20033;-51
2024/02/23 13:40:24;;;;;;;19.00;8.90;;;;;;;;;;5023382;28;20064;-48
2024/02/23 13:42:52;;;;;;;15.02;8.88;;;;;;;;;;5023673;28;20089;-50
2024/02/23 13:45:19;;;;;;;23.40;9.98;;;;;;;;;;5023720;28;20014;-53
2024/02/23 13:47:55;;;;;;;16.45;9.40;;;;;;;;;;5025062;28;20029;-52
2024/02/23 13:50:22;;;;;;;19.63;9.05;;;;;;;;;;5023983;28;20087;-50
2024/02/23 13:52:49;;;;;;;19.95;9.15;;;;;;;;;;5025022;28;20030;-48
2024/02/23 13:55:16;;;;;;;14.63;9.30;;;;;;;;;;5025034;28;20282;-44
2024/02/23 13:57:42;;;;;;;17.10;8.63;;;;;;;;;;5024847;28;20030;-49
2024/02/23 14:00:12;;;;;;;18.77;8.85;;;;;;;;;;5024866;28;20025;-51
2024/02/23 14:02:42;;;;;;;17.73;8.93;;;;;;;;;;5024769;28;20033;-51
2024/02/23 14:05:09;;;;;;;18.42;9.23;;;;;;;;;;5024532;28;20068;-50
2024/02/23 14:07:36;;;;;;;14.50;8.93;;;;;;;;;;5024659;28;20049;-46
2024/02/23 14:10:03;;;;;;;22.05;9.70;;;;;;;;;;5024707;28;20101;-51
2024/02/23 14:12:30;;;;;;;17.38;8.93;;;;;;;;;;5024531;28;20032;-45
2024/02/23 14:14:57;;;;;;;24.77;9.07;;;;;;;;;;5024694;28;20337;-50
2024/02/23 14:17:23;;;;;;;21.90;9.48;;;;;;;;;;5023871;28;20026;-46
2024/02/23 14:19:50;;;;;;;20.15;9.77;;;;;;;;;;5023826;28;20017;-45
2024/02/23 14:22:17;;;;;;;22.83;9.95;;;;;;;;;;5024467;28;20076;-45
2024/02/23 14:24:44;;;;;;;24.60;10.07;;;;;;;;;;5006908;28;20029;-45